Time;durP1;ratioP1;P1;durP2;ratioP2;P2;SDS_P1;SDS_P2;PMS_P1;PMS_P2;Temp;Humidity;BMP_temperature;BMP_pressure;BME280_temperature;BME280_humidity;BME280_pressure;Samples;Min_cycle;Max_cycle;Signal;HPM_P1;HPM_P2
2022/05/15 00:01:20;;;;;;;;;6.60;6.40;;;;;21.25;39.26;101082.41;5034086;28;45464;-48
2022/05/15 00:03:46;;;;;;;;;7.25;7.00;;;;;21.26;39.24;101084.91;5034198;28;45805;-52
2022/05/15 00:06:11;;;;;;;;;7.75;5.75;;;;;21.24;39.37;101087.13;5034501;28;45853;-51
2022/05/15 00:08:38;;;;;;;;;8.00;6.75;;;;;21.10;39.45;101063.66;5034205;28;45616;-48
2022/05/15 00:11:04;;;;;;;;;6.40;6.40;;;;;20.98;39.38;101050.78;5031804;28;47004;-51
2022/05/15 00:13:30;;;;;;;;;6.75;6.75;;;;;21.12;39.41;101061.41;5034166;28;45564;-47
2022/05/15 00:15:56;;;;;;;;;6.00;6.00;;;;;21.17;39.61;101078.19;5034080;28;45457;-48
2022/05/15 00:18:22;;;;;;;;;9.25;8.50;;;;;21.11;39.53;101063.38;5034417;28;45696;-53
2022/05/15 00:20:49;;;;;;;;;7.75;7.00;;;;;21.16;39.68;101064.50;5033491;28;45756;-54
2022/05/15 00:23:15;;;;;;;;;7.20;6.00;;;;;20.93;39.79;101024.84;5032857;28;45517;-51
2022/05/15 00:25:40;;;;;;;;;7.75;7.75;;;;;20.97;39.64;101031.56;5032399;28;45537;-51
2022/05/15 00:28:06;;;;;;;;;10.25;8.25;;;;;21.11;39.83;101066.19;5034252;28;45461;-47
2022/05/15 00:30:32;;;;;;;;;8.50;7.75;;;;;21.10;39.89;101055.28;5033518;28;45705;-49
2022/05/15 00:32:58;;;;;;;;;7.80;6.00;;;;;21.10;39.78;101061.72;5033673;28;45857;-53
2022/05/15 00:35:24;;;;;;;;;8.20;7.80;;;;;21.10;39.83;101058.94;5033006;28;45691;-51
2022/05/15 00:37:50;;;;;;;;;7.00;7.00;;;;;21.09;39.81;101054.44;5061231;28;45737;-51
2022/05/15 00:40:16;;;;;;;;;5.00;4.75;;;;;21.05;39.73;101038.53;5003283;28;45899;-48
2022/05/15 00:42:42;;;;;;;;;7.40;6.40;;;;;21.06;39.86;101051.34;5022332;28;45387;-50
2022/05/15 00:45:08;;;;;;;;;5.75;5.75;;;;;21.02;40.04;101062.22;5037721;28;45398;-48
2022/05/15 00:47:33;;;;;;;;;6.40;6.00;;;;;20.85;39.87;101035.41;5037808;28;45615;-50
2022/05/15 00:49:59;;;;;;;;;7.75;6.75;;;;;21.01;39.85;101054.16;5035992;28;49204;-48
2022/05/15 00:52:27;;;;;;;;;7.00;4.75;;;;;20.94;40.11;101034.88;5036450;28;45492;-50
2022/05/15 00:55:30;;;;;;;;;7.20;6.00;;;;;20.96;39.78;101033.50;5019867;28;45278;-50
2022/05/15 00:57:59;;;;;;;;;5.40;5.40;;;;;20.72;39.80;100994.91;5037765;28;45311;-48
2022/05/15 01:00:27;;;;;;;;;6.20;5.80;;;;;20.72;40.09;101006.06;5036659;28;45825;-48
2022/05/15 01:03:04;;;;;;;;;6.00;6.00;;;;;20.47;40.22;100965.00;5018964;28;45461;-48
2022/05/15 01:05:32;;;;;;;;;6.20;5.40;;;;;20.83;40.13;101031.19;5036774;28;45362;-51
2022/05/15 01:07:58;;;;;;;;;4.00;4.00;;;;;20.77;40.36;101021.97;5038025;28;45521;-49
2022/05/15 01:10:23;;;;;;;;;6.00;5.00;;;;;20.54;40.40;100989.84;5037307;28;46724;-49
2022/05/15 01:12:49;;;;;;;;;5.25;5.25;;;;;20.66;40.04;101001.56;5037721;28;45346;-50
2022/05/15 01:15:19;;;;;;;;;5.00;5.00;;;;;20.79;40.23;101030.06;5037703;28;45633;-47
2022/05/15 01:17:44;;;;;;;;;7.00;5.00;;;;;20.75;40.24;101018.63;5037668;28;45429;-48
2022/05/15 01:20:13;;;;;;;;;6.50;5.00;;;;;20.63;40.07;101002.13;5036205;28;47899;-51
2022/05/15 01:22:39;;;;;;;;;4.80;2.80;;;;;20.78;40.25;101011.66;5037592;28;45374;-49
2022/05/15 01:25:11;;;;;;;;;4.60;3.40;;;;;20.67;40.13;101003.28;5037554;28;45394;-49
2022/05/15 01:27:36;;;;;;;;;5.40;4.80;;;;;20.76;40.22;101019.47;5036376;28;45464;-53
2022/05/15 01:30:05;;;;;;;;;5.50;5.50;;;;;20.75;40.10;101015.00;5037468;28;45504;-53
2022/05/15 01:32:31;;;;;;;;;5.00;5.00;;;;;20.77;40.31;101021.13;5037217;28;45335;-53
2022/05/15 01:34:56;;;;;;;;;4.25;3.75;;;;;20.75;40.37;101023.38;5036315;28;45358;-50
2022/05/15 01:37:22;;;;;;;;;6.00;4.00;;;;;20.62;40.49;100997.66;5037506;28;45559;-51
2022/05/15 01:39:47;;;;;;;;;5.00;5.00;;;;;20.57;40.92;101018.00;5036064;28;45402;-51
2022/05/15 01:42:13;;;;;;;;;7.50;7.50;;;;;20.49;40.89;101006.56;5036866;28;45567;-51
2022/05/15 01:44:38;;;;;;;;;5.00;5.00;;;;;20.45;41.13;101006.25;5020687;28;45540;-47
2022/05/15 01:47:04;;;;;;;;;5.00;5.00;;;;;20.44;41.10;101001.78;5037364;28;45355;-52
2022/05/15 01:49:29;;;;;;;;;5.50;5.25;;;;;20.42;41.27;100996.50;5036884;28;46192;-51
2022/05/15 01:51:55;;;;;;;;;6.25;5.75;;;;;20.36;41.74;100988.34;5037114;28;45389;-46
2022/05/15 01:54:20;;;;;;;;;7.50;6.25;;;;;20.37;41.50;100998.41;5037318;28;45374;-48
2022/05/15 01:56:46;;;;;;;;;6.00;6.00;;;;;20.41;41.50;101005.13;5037096;28;45583;-50
2022/05/15 01:59:12;;;;;;;;;6.50;6.50;;;;;20.43;41.65;100998.16;5037094;28;45693;-49
2022/05/15 02:01:37;;;;;;;;;6.00;6.00;;;;;20.43;40.87;100992.59;5036568;28;45475;-47
2022/05/15 02:04:04;;;;;;;;;5.50;5.50;;;;;20.53;41.11;100993.72;5069125;28;45282;-45
2022/05/15 02:06:29;;;;;;;;;6.20;5.40;;;;;20.48;41.28;100985.38;5037046;28;45453;-48
2022/05/15 02:08:55;;;;;;;;;5.50;5.50;;;;;20.36;41.39;100994.78;5036450;28;46015;-49
2022/05/15 02:11:22;;;;;;;;;4.60;4.60;;;;;20.33;41.71;100991.72;5036930;28;45516;-48
2022/05/15 02:13:47;;;;;;;;;9.60;9.40;;;;;20.28;41.74;100979.41;5034718;28;45377;-47
2022/05/15 02:16:13;;;;;;;;;5.50;5.50;;;;;20.16;41.67;100954.56;5035774;28;45807;-48
2022/05/15 02:18:38;;;;;;;;;4.00;4.00;;;;;20.10;41.82;100940.88;5036292;28;46368;-48
2022/05/15 02:21:04;;;;;;;;;6.50;6.50;;;;;20.32;41.47;100971.34;5036489;28;45398;-50
2022/05/15 02:23:30;;;;;;;;;6.25;4.75;;;;;20.29;41.66;100957.97;5036593;28;45448;-49
2022/05/15 02:25:55;;;;;;;;;5.50;5.25;;;;;20.26;41.63;100953.78;5036506;28;45772;-48
2022/05/15 02:28:21;;;;;;;;;3.75;3.75;;;;;20.13;41.72;100945.91;5035175;28;45401;-49
2022/05/15 02:30:50;;;;;;;;;5.50;5.50;;;;;20.11;41.39;100943.41;5036119;28;45441;-48
2022/05/15 02:33:15;;;;;;;;;5.60;5.60;;;;;20.25;41.60;100960.47;5036464;28;45263;-48
2022/05/15 02:35:41;;;;;;;;;3.75;3.75;;;;;20.23;41.51;100967.41;5036765;28;45350;-46
2022/05/15 02:38:06;;;;;;;;;4.50;3.50;;;;;20.03;41.76;100935.56;5068495;28;46300;-48
2022/05/15 02:40:32;;;;;;;;;6.25;4.50;;;;;20.18;41.55;100952.34;5036470;28;45260;-53
2022/05/15 02:42:58;;;;;;;;;6.50;4.50;;;;;20.22;41.76;100972.13;5036218;28;45269;-50
2022/05/15 02:45:23;;;;;;;;;2.75;2.75;;;;;20.14;41.73;100965.16;5036266;28;45557;-48
2022/05/15 02:47:50;;;;;;;;;6.00;4.50;;;;;20.21;41.71;100966.88;5018013;28;45650;-47
2022/05/15 02:53:00;;;;;;;;;7.60;5.20;;;;;20.06;41.41;100935.00;5036035;28;45493;-47
2022/05/15 02:55:25;;;;;;;;;5.25;5.25;;;;;20.34;41.45;100977.50;5018549;28;45673;-48
2022/05/15 02:57:51;;;;;;;;;3.50;3.00;;;;;20.33;41.20;100973.03;5035847;28;45531;-47
2022/05/15 03:00:17;;;;;;;;;3.25;3.25;;;;;20.34;41.29;100983.09;5036207;28;45413;-48
2022/05/15 03:02:43;;;;;;;;;5.00;3.80;;;;;20.34;41.36;100971.09;5034587;28;45357;-51
2022/05/15 03:05:09;;;;;;;;;4.25;4.25;;;;;20.15;41.30;100938.13;5034981;28;45346;-52
2022/05/15 03:07:36;;;;;;;;;3.40;3.40;;;;;20.24;41.64;100974.66;5035819;28;45625;-51
2022/05/15 03:10:02;;;;;;;;;4.40;4.40;;;;;20.04;41.75;100945.59;5017353;28;45383;-48
2022/05/15 03:12:27;;;;;;;;;3.40;3.40;;;;;20.11;41.81;100970.44;5034720;28;45423;-47
2022/05/15 03:14:53;;;;;;;;;4.00;4.00;;;;;20.14;41.59;100965.16;5035645;28;45646;-48
2022/05/15 03:17:19;;;;;;;;;5.80;3.80;;;;;20.09;41.71;100962.34;5035579;28;46425;-50
2022/05/15 03:19:45;;;;;;;;;4.50;4.50;;;;;19.99;41.81;100943.63;5035723;28;45477;-50
2022/05/15 03:22:10;;;;;;;;;6.50;6.00;;;;;19.91;41.75;100933.81;5035475;28;45375;-50
2022/05/15 03:24:36;;;;;;;;;5.75;4.75;;;;;20.04;41.53;100951.16;5033889;28;45395;-52
2022/05/15 03:27:02;;;;;;;;;4.50;4.50;;;;;19.77;41.66;100910.34;5035300;28;46270;-50
2022/05/15 03:29:27;;;;;;;;;2.75;2.75;;;;;20.02;41.89;100945.84;5035540;28;45330;-52
2022/05/15 03:31:53;;;;;;;;;4.25;3.25;;;;;19.80;41.55;100912.56;5035733;28;45453;-51
2022/05/15 03:34:18;;;;;;;;;5.00;5.00;;;;;20.02;41.50;100945.03;5035342;28;45271;-50
2022/05/15 03:36:45;;;;;;;;;5.50;5.50;;;;;19.90;41.64;100937.69;5035390;28;46308;-50
2022/05/15 03:39:13;;;;;;;;;2.80;2.80;;;;;19.74;41.84;100928.41;5035105;28;45661;-48
2022/05/15 03:41:39;;;;;;;;;3.20;3.20;;;;;19.61;41.94;100901.06;5034396;28;45419;-49
2022/05/15 03:44:05;;;;;;;;;4.75;4.75;;;;;19.90;41.94;100945.19;5034062;28;45401;-49
2022/05/15 03:46:30;;;;;;;;;3.60;3.60;;;;;19.91;42.01;100935.75;5035551;28;45678;-49
2022/05/15 03:48:56;;;;;;;;;3.00;3.00;;;;;19.91;41.77;100931.00;5035282;28;45342;-49
2022/05/15 03:51:22;;;;;;;;;4.25;4.25;;;;;19.63;42.00;100885.75;5035273;28;45452;-49
2022/05/15 03:53:47;;;;;;;;;4.75;4.75;;;;;19.94;41.76;100928.81;5035631;28;45411;-54
2022/05/15 03:56:13;;;;;;;;;3.00;3.00;;;;;19.87;41.60;100927.13;5035146;28;45428;-51
2022/05/15 03:58:38;;;;;;;;;4.00;4.00;;;;;19.50;41.99;100875.97;5035310;28;45476;-50
2022/05/15 04:01:04;;;;;;;;;4.00;4.00;;;;;19.87;41.95;100913.19;5035237;28;45296;-51
2022/05/15 04:03:30;;;;;;;;;6.00;4.25;;;;;19.60;41.96;100888.25;5033452;28;45502;-50
2022/05/15 04:05:56;;;;;;;;;4.75;4.75;;;;;19.74;42.04;100919.25;5034990;28;46795;-51
2022/05/15 04:08:21;;;;;;;;;3.75;3.75;;;;;19.64;42.30;100900.53;5034641;28;45418;-47
2022/05/15 04:10:47;;;;;;;;;4.25;4.25;;;;;19.71;42.43;100923.41;5035003;28;45282;-50
2022/05/15 04:13:12;;;;;;;;;4.00;4.00;;;;;19.71;42.33;100925.34;5035208;28;45364;-51
2022/05/15 04:15:38;;;;;;;;;4.00;4.00;;;;;19.71;42.03;100930.91;5034321;28;46185;-50
2022/05/15 04:18:05;;;;;;;;;5.00;4.00;;;;;19.70;42.15;100937.59;5034828;28;45363;-50
2022/05/15 04:20:31;;;;;;;;;4.40;4.00;;;;;19.73;42.13;100940.66;5034638;28;45375;-48
2022/05/15 04:22:56;;;;;;;;;5.50;5.50;;;;;19.77;41.99;100925.09;5035077;28;45485;-50
2022/05/15 04:25:22;;;;;;;;;7.25;4.50;;;;;19.81;42.22;100928.19;5034562;28;45409;-48
2022/05/15 04:27:48;;;;;;;;;6.50;5.50;;;;;19.81;41.87;100925.41;5033286;28;45511;-48
2022/05/15 04:30:15;;;;;;;;;5.00;4.25;;;;;19.80;42.01;100920.91;5034657;28;45347;-46
2022/05/15 04:32:44;;;;;;;;;4.60;4.60;;;;;19.82;41.82;100915.94;5034828;28;45396;-47
2022/05/15 04:35:10;;;;;;;;;4.20;3.00;;;;;19.57;41.98;100874.84;5034617;28;45516;-48
2022/05/15 04:37:35;;;;;;;;;4.50;4.50;;;;;19.86;41.95;100916.22;5037540;28;45505;-50
2022/05/15 04:40:52;;;;;;;;;7.00;7.00;;;;;19.80;42.15;100908.97;5008158;28;45422;-47
2022/05/15 04:43:18;;;;;;;;;4.60;4.00;;;;;19.75;42.35;100907.81;5038109;28;45535;-49
2022/05/15 04:45:43;;;;;;;;;3.25;3.25;;;;;19.75;42.17;100905.03;5037495;28;46241;-52
2022/05/15 04:48:10;;;;;;;;;4.25;4.25;;;;;19.69;42.63;100910.84;5037864;28;45431;-52
2022/05/15 04:50:37;;;;;;;;;4.80;3.20;;;;;19.70;42.37;100909.75;5037724;28;45365;-48
2022/05/15 04:53:03;;;;;;;;;5.00;5.00;;;;;19.69;41.75;100902.50;5037673;28;45287;-48
2022/05/15 04:55:29;;;;;;;;;5.60;5.20;;;;;19.77;42.12;100927.03;5037810;28;45990;-51
2022/05/15 04:57:54;;;;;;;;;5.00;5.00;;;;;19.71;42.34;100916.97;5037191;28;45362;-49
2022/05/15 05:00:20;;;;;;;;;6.00;6.00;;;;;19.72;42.37;100918.66;5038068;28;45500;-50
2022/05/15 05:02:46;;;;;;;;;3.00;3.00;;;;;19.76;41.96;100937.31;5037358;28;45516;-49
2022/05/15 05:05:11;;;;;;;;;4.50;4.25;;;;;19.78;42.16;100934.28;5037755;28;46099;-50
2022/05/15 05:07:37;;;;;;;;;6.50;5.50;;;;;19.85;42.02;100940.44;5037815;28;45393;-48
2022/05/15 05:10:04;;;;;;;;;3.75;3.75;;;;;19.87;41.55;100932.69;5037550;28;45429;-48
2022/05/15 05:12:30;;;;;;;;;6.40;4.00;;;;;19.82;41.85;100937.38;5038037;28;45434;-47
2022/05/15 05:14:57;;;;;;;;;6.00;5.00;;;;;19.83;42.16;100933.47;5037150;28;45381;-50
2022/05/15 05:17:23;;;;;;;;;5.80;5.80;;;;;19.75;41.94;100916.16;5036403;28;45348;-48
2022/05/15 05:19:49;;;;;;;;;7.00;5.75;;;;;19.55;41.91;100875.16;5037311;28;45388;-51
2022/05/15 05:22:14;;;;;;;;;4.00;4.00;;;;;19.92;42.16;100929.06;5037820;28;45443;-49
2022/05/15 05:24:40;;;;;;;;;4.75;4.75;;;;;19.95;41.52;100933.28;5037290;28;45540;-49
2022/05/15 05:27:05;;;;;;;;;8.25;5.00;;;;;19.88;41.95;100927.94;5037089;28;45429;-49
2022/05/15 05:29:31;;;;;;;;;5.00;4.00;;;;;19.95;41.94;100936.91;5037466;28;45440;-48
2022/05/15 05:31:56;;;;;;;;;6.00;5.00;;;;;19.92;42.09;100932.69;5036399;28;45337;-47
2022/05/15 05:34:22;;;;;;;;;4.75;4.75;;;;;19.93;41.94;100941.88;5037174;28;46298;-51
2022/05/15 05:36:48;;;;;;;;;5.50;5.50;;;;;19.95;42.10;100944.41;5037207;28;45447;-50
2022/05/15 05:39:13;;;;;;;;;5.75;4.00;;;;;19.96;41.92;100941.38;5035880;28;45858;-48
2022/05/15 05:41:39;;;;;;;;;5.75;5.00;;;;;19.96;42.16;100941.38;5037773;28;45352;-50
2022/05/15 05:44:04;;;;;;;;;4.50;4.50;;;;;19.94;42.21;100949.13;5035316;28;45736;-52
2022/05/15 05:46:30;;;;;;;;;4.75;4.50;;;;;19.78;42.01;100921.22;5036929;28;45295;-49
2022/05/15 05:48:56;;;;;;;;;6.25;6.00;;;;;19.89;41.95;100933.25;5036195;28;45362;-51
2022/05/15 05:51:21;;;;;;;;;8.60;7.20;;;;;19.68;42.33;100906.41;5069512;28;45420;-50
2022/05/15 05:53:47;;;;;;;;;1.75;1.50;;;;;19.94;42.12;100942.75;5037102;28;45361;-48
2022/05/15 05:56:13;;;;;;;;;6.50;5.50;;;;;20.02;41.85;100933.91;5036788;28;45421;-48
2022/05/15 05:58:38;;;;;;;;;5.75;3.50;;;;;20.09;41.74;100931.69;5037156;28;45365;-49
2022/05/15 06:01:04;;;;;;;;;4.75;4.75;;;;;19.91;41.43;100917.09;5036613;28;45454;-52
2022/05/15 06:06:14;;;;;;;;;4.80;4.80;;;;;19.93;41.57;100891.75;5036721;28;45441;-48
2022/05/15 06:08:40;;;;;;;;;6.00;5.50;;;;;20.17;41.48;100922.00;5069584;28;45471;-51
2022/05/15 06:11:05;;;;;;;;;4.00;4.00;;;;;19.98;41.38;100894.59;5068872;28;45547;-52
2022/05/15 06:13:31;;;;;;;;;6.00;4.75;;;;;20.20;41.15;100931.72;5036530;28;45541;-48
2022/05/15 06:15:57;;;;;;;;;4.75;4.75;;;;;20.17;40.66;100922.81;5036617;28;45452;-52
2022/05/15 06:18:22;;;;;;;;;4.25;4.25;;;;;20.01;40.71;100899.63;5036619;28;45386;-50
2022/05/15 06:20:48;;;;;;;;;5.00;5.00;;;;;20.11;40.70;100898.81;5037062;28;45647;-49
2022/05/15 06:23:13;;;;;;;;;4.50;4.50;;;;;20.28;40.69;100934.81;5036062;28;46141;-52
2022/05/15 06:25:39;;;;;;;;;8.25;4.50;;;;;19.98;40.28;100875.09;5036578;28;45743;-49
2022/05/15 06:28:05;;;;;;;;;7.00;4.00;;;;;20.31;40.44;100928.72;5036515;28;45384;-49
2022/05/15 06:30:30;;;;;;;;;3.50;3.25;;;;;20.34;40.49;100924.56;5034991;28;45366;-48
2022/05/15 06:32:56;;;;;;;;;6.75;5.00;;;;;20.16;40.73;100896.06;5036486;28;45422;-49
2022/05/15 06:35:22;;;;;;;;;6.50;3.50;;;;;20.34;40.46;100930.13;5035986;28;45338;-52
2022/05/15 06:37:47;;;;;;;;;3.50;3.50;;;;;20.34;40.25;100924.56;5036807;28;45321;-52
2022/05/15 06:40:13;;;;;;;;;5.25;5.25;;;;;20.30;40.90;100929.00;5035072;28;45389;-47
2022/05/15 06:42:39;;;;;;;;;2.60;2.60;;;;;20.28;40.69;100934.81;5035086;28;45788;-45
2022/05/15 06:45:05;;;;;;;;;3.80;2.80;;;;;20.13;40.47;100913.31;5036169;28;45435;-47
2022/05/15 06:47:31;;;;;;;;;4.75;4.75;;;;;20.35;40.71;100937.38;5036139;28;45431;-50
2022/05/15 06:49:58;;;;;;;;;5.00;4.00;;;;;20.03;40.68;100886.25;5036442;28;45426;-50
2022/05/15 06:52:24;;;;;;;;;3.40;3.40;;;;;20.44;40.71;100944.09;5035508;28;45802;-51
2022/05/15 06:54:50;;;;;;;;;4.20;2.80;;;;;20.51;40.60;100940.19;5036018;28;45250;-48
2022/05/15 06:57:32;;;;;;;;;7.25;4.75;;;;;20.48;40.49;100924.03;5036469;28;45339;-48
2022/05/15 07:00:10;;;;;;;;;4.20;3.20;;;;;20.59;40.53;100932.13;5036289;28;45237;-50
2022/05/15 07:02:35;;;;;;;;;2.60;2.60;;;;;20.48;40.44;100887.78;5035524;28;46303;-50
2022/05/15 07:05:01;;;;;;;;;5.00;3.75;;;;;20.70;40.24;100910.69;5035526;28;45254;-53
2022/05/15 07:07:26;;;;;;;;;4.00;3.50;;;;;20.72;40.56;100914.03;5035896;28;45290;-54
2022/05/15 07:09:52;;;;;;;;;5.25;3.75;;;;;20.76;40.50;100919.88;5034429;28;45406;-49
2022/05/15 07:12:17;;;;;;;;;4.25;4.25;;;;;20.83;40.42;100914.91;5035929;28;45543;-51
2022/05/15 07:14:43;;;;;;;;;6.00;5.50;;;;;20.88;40.39;100907.66;5035211;28;45438;-54
2022/05/15 07:17:08;;;;;;;;;5.00;4.00;;;;;20.86;40.49;100899.56;5035566;28;45386;-53
2022/05/15 07:19:34;;;;;;;;;6.75;4.50;;;;;20.84;40.69;100899.00;5035556;28;45397;-52
2022/05/15 07:22:00;;;;;;;;;2.75;2.00;;;;;20.90;40.55;100895.13;5035543;28;46550;-50
2022/05/15 07:24:25;;;;;;;;;4.00;4.00;;;;;20.81;40.30;100866.09;5035736;28;45766;-49
2022/05/15 07:26:51;;;;;;;;;4.75;3.00;;;;;20.84;40.17;100854.38;5035569;28;45845;-57
2022/05/15 07:29:16;;;;;;;;;2.75;2.75;;;;;21.06;40.01;100881.16;5034336;28;45441;-50
2022/05/15 07:31:42;;;;;;;;;4.50;4.00;;;;;21.08;39.42;100878.94;5035272;28;46510;-49
2022/05/15 07:34:08;;;;;;;;;4.25;3.75;;;;;21.13;39.64;100879.78;5035529;28;45299;-50
2022/05/15 07:36:34;;;;;;;;;3.50;3.50;;;;;21.17;39.57;100879.22;5034450;28;45369;-52
2022/05/15 07:39:00;;;;;;;;;3.75;3.50;;;;;21.20;39.58;100875.84;5035716;28;45614;-51
2022/05/15 07:41:25;;;;;;;;;4.25;3.75;;;;;21.24;39.42;100880.59;5021825;28;46312;-50
2022/05/15 07:43:50;;;;;;;;;5.00;3.75;;;;;21.25;39.27;100873.88;5040494;28;45319;-49
2022/05/15 07:46:16;;;;;;;;;4.25;4.25;;;;;21.38;39.15;100880.00;5030058;28;45365;-52
2022/05/15 07:48:42;;;;;;;;;3.75;3.75;;;;;21.45;39.16;100872.19;5034089;28;45593;-51
2022/05/15 07:51:08;;;;;;;;;4.25;3.75;;;;;21.52;38.85;100871.91;5033550;28;46175;-48
2022/05/15 07:53:33;;;;;;;;;6.00;3.00;;;;;21.57;39.02;100865.47;5035074;28;45318;-50
2022/05/15 07:55:59;;;;;;;;;5.00;4.00;;;;;21.63;38.98;100869.91;5034956;28;45430;-48
2022/05/15 07:58:25;;;;;;;;;5.75;4.00;;;;;21.71;39.37;100866.56;5030744;27;45907;-48
2022/05/15 08:00:53;;;;;;;;;4.00;4.00;;;;;21.69;38.47;100846.47;5014148;28;45724;-46
2022/05/15 08:03:19;;;;;;;;;5.40;5.00;;;;;21.82;38.37;100858.97;5014781;28;45485;-46
2022/05/15 08:08:28;;;;;;;;;4.40;4.40;;;;;21.96;37.75;100839.66;5051085;28;46049;-53
2022/05/15 08:10:53;;;;;;;;;3.75;3.75;;;;;21.84;38.07;100808.41;5051639;28;46567;-49
2022/05/15 08:13:23;;;;;;;;;3.00;2.00;;;;;22.09;37.67;100832.56;5053347;28;45441;-49
2022/05/15 08:15:48;;;;;;;;;5.00;2.60;;;;;21.96;37.55;100797.72;5046881;28;45882;-50
2022/05/15 08:23:50;;;;;;;;;4.60;3.40;;;;;22.38;37.07;100820.69;5034573;28;45759;-52
2022/05/15 08:26:16;;;;;;;;;4.00;4.00;;;;;22.31;37.05;100801.41;5034563;28;45465;-51
2022/05/15 08:28:41;;;;;;;;;4.20;3.20;;;;;22.40;37.17;100810.03;5034437;27;45401;-51
2022/05/15 08:31:08;;;;;;;;;4.00;4.00;;;;;22.36;36.96;100808.94;5065241;27;46146;-49
2022/05/15 08:33:34;;;;;;;;;2.00;1.60;;;;;22.25;36.34;100782.19;5034151;28;45374;-49
2022/05/15 08:36:00;;;;;;;;;2.80;2.00;;;;;22.47;36.53;100815.31;5034217;28;45771;-52
2022/05/15 08:38:25;;;;;;;;;2.75;2.25;;;;;22.54;36.72;100820.59;5033145;28;45433;-50
2022/05/15 08:40:55;;;;;;;;;2.50;2.50;;;;;22.61;36.65;100815.50;5033662;28;45506;-49
2022/05/15 08:43:24;;;;;;;;;3.00;2.80;;;;;22.63;36.33;100804.03;5065082;27;45482;-48
2022/05/15 08:46:25;;;;;;;;;5.60;5.60;;;;;22.74;36.02;100802.81;5049848;28;45545;-51
2022/05/15 08:48:50;;;;;;;;;2.20;2.20;;;;;22.58;36.28;100769.38;5066805;28;45488;-49
2022/05/15 08:51:16;;;;;;;;;5.50;5.00;;;;;22.88;36.15;100802.94;5032351;28;46455;-51
2022/05/15 08:53:42;;;;;;;;;3.00;2.75;;;;;22.86;36.06;100785.63;5033850;28;45775;-52
2022/05/15 08:56:09;;;;;;;;;3.20;2.60;;;;;22.91;35.83;100779.16;5064992;27;45860;-52
2022/05/15 08:58:55;;;;;;;;;4.20;3.20;;;;;23.13;35.81;100799.09;5056673;27;45745;-55
2022/05/15 09:01:27;;;;;;;;;2.80;2.80;;;;;23.00;35.63;100771.78;5031461;28;46045;-47
2022/05/15 09:03:53;;;;;;;;;2.20;2.20;;;;;23.29;35.72;100796.09;5065739;28;45443;-55
2022/05/15 09:06:39;;;;;;;;;4.60;4.60;;;;;23.05;34.94;100743.72;5065566;28;45905;-49
2022/05/15 09:09:25;;;;;;;;;3.00;3.00;;;;;23.48;35.09;100806.56;5062672;27;45579;-49
2022/05/15 09:12:01;;;;;;;;;3.00;2.00;;;;;23.53;35.32;100795.31;5031626;28;45503;-47
2022/05/15 09:14:41;;;;;;;;;2.40;2.00;;;;;23.58;34.88;100792.44;5033273;28;45880;-49
2022/05/15 09:17:24;;;;;;;;;2.00;2.00;;;;;23.67;35.34;100801.00;5033541;28;45730;-47
2022/05/15 09:19:56;;;;;;;;;2.40;2.40;;;;;23.69;34.79;100791.16;5032267;28;45438;-49
2022/05/15 09:22:21;;;;;;;;;2.80;2.80;;;;;23.76;35.30;100790.81;5031610;28;46512;-48
2022/05/15 09:24:53;;;;;;;;;4.00;4.00;;;;;23.81;34.88;100787.94;5026573;28;45538;-50
2022/05/15 09:27:21;;;;;;;;;3.20;3.20;;;;;23.91;35.10;100783.34;5029624;28;45459;-54
2022/05/15 09:29:58;;;;;;;;;1.80;1.80;;;;;23.78;34.90;100751.28;5014381;28;45968;-49
2022/05/15 09:32:42;;;;;;;;;3.60;3.60;;;;;23.99;34.35;100774.25;5030768;28;45715;-49
2022/05/15 09:35:13;;;;;;;;;4.00;2.20;;;;;24.01;33.94;100771.16;5032546;28;45455;-55
2022/05/15 09:43:30;;;;;;;;;3.00;3.00;;;;;24.19;33.73;100772.31;5031866;28;45529;-50
2022/05/15 09:43:33;;;;;;;;;3.80;3.80;;;;;24.27;33.28;100773.59;5030917;28;45475;-51
2022/05/15 09:46:06;;;;;;;;;3.80;2.80;;;;;23.92;33.62;100700.91;5032550;28;45805;-53
2022/05/15 09:48:48;;;;;;;;;4.20;3.60;;;;;24.29;33.15;100732.06;5045111;28;46021;-50
2022/05/15 09:51:14;;;;;;;;;2.00;2.00;;;;;24.55;33.09;100756.88;5032440;28;45738;-52
2022/05/15 09:53:42;;;;;;;;;2.00;2.00;;;;;24.60;32.23;100759.59;5046931;28;47168;-52
2022/05/15 09:56:21;;;;;;;;;3.20;3.20;;;;;24.60;32.35;100754.78;5029638;28;45986;-49
2022/05/15 09:58:55;;;;;;;;;5.00;3.40;;;;;24.60;31.63;100748.38;5019846;27;45752;-51
2022/05/15 10:01:24;;;;;;;;;4.20;2.60;;;;;24.61;31.88;100738.81;5031442;28;45470;-52
2022/05/15 10:03:51;;;;;;;;;3.20;3.20;;;;;24.32;32.23;100693.00;5031857;28;45472;-51
2022/05/15 10:06:19;;;;;;;;;3.00;2.60;;;;;24.23;31.78;100670.44;5032012;28;45868;-54
2022/05/15 10:08:45;;;;;;;;;3.00;1.00;;;;;24.77;31.57;100740.19;5030351;28;45404;-54
2022/05/15 10:11:18;;;;;;;;;2.00;2.00;;;;;24.75;31.32;100724.78;5032068;28;45366;-55
2022/05/15 10:13:52;;;;;;;;;4.20;2.80;;;;;24.81;31.17;100731.19;5046403;28;46426;-54
2022/05/15 10:16:27;;;;;;;;;4.00;2.40;;;;;24.86;31.33;100736.72;5046283;28;45479;-51
2022/05/15 10:19:00;;;;;;;;;2.00;2.00;;;;;24.82;30.99;100710.41;5062799;28;45377;-54
2022/05/15 10:21:49;;;;;;;;;3.20;1.20;;;;;25.02;30.97;100721.22;5029403;28;45870;-51
2022/05/15 10:24:18;;;;;;;;;2.00;2.00;;;;;24.98;30.68;100696.91;5030082;28;45830;-49
2022/05/15 10:26:50;;;;;;;;;1.80;1.80;;;;;25.18;31.11;100720.91;5014722;28;45462;-49
2022/05/15 10:29:29;;;;;;;;;1.80;1.80;;;;;25.27;30.27;100721.00;5032129;28;45509;-50
2022/05/15 10:32:01;;;;;;;;;1.20;1.20;;;;;25.37;30.45;100708.75;5029912;28;45455;-47
2022/05/15 10:34:29;;;;;;;;;1.80;1.80;;;;;25.48;30.40;100704.56;5062588;28;46611;-48
2022/05/15 10:36:54;;;;;;;;;2.60;2.60;;;;;25.52;30.94;100702.84;5031951;28;45481;-51
2022/05/15 10:39:20;;;;;;;;;24.00;14.50;;;;;25.53;30.58;100698.03;5031880;28;45421;-49
2022/05/15 10:41:54;;;;;;;;;7.00;7.00;;;;;25.48;30.80;100687.72;5032163;28;45630;-52
2022/05/15 10:44:39;;;;;;;;;7.40;4.60;;;;;25.58;30.82;100697.94;5061457;28;46048;-51
2022/05/15 10:47:18;;;;;;;;;2.80;2.80;;;;;25.48;30.82;100665.25;5031840;28;45864;-47
2022/05/15 10:50:02;;;;;;;;;8.00;7.20;;;;;25.72;30.76;100697.91;5062439;28;45910;-53
2022/05/15 10:52:46;;;;;;;;;6.20;4.80;;;;;25.76;30.80;100692.47;5031780;28;45499;-47
2022/05/15 10:58:18;;;;;;;;;6.40;4.20;;;;;25.90;30.45;100682.00;5029294;28;45786;-47
2022/05/15 11:01:17;;;;;;;;;4.00;4.00;;;;;26.05;30.46;100692.06;5022778;27;45853;-54
2022/05/15 11:04:06;;;;;;;;;2.00;2.00;;;;;26.19;30.48;100693.97;5013111;28;45518;-52
2022/05/15 11:06:43;;;;;;;;;4.20;4.20;;;;;26.31;30.33;100688.59;5050203;28;47479;-51
2022/05/15 11:09:20;;;;;;;;;2.60;2.60;;;;;26.50;29.74;100684.75;5042606;28;45662;-49
2022/05/15 11:12:18;;;;;;;;;4.00;3.60;;;;;26.65;29.16;100675.91;5063692;28;45421;-50
2022/05/15 11:14:58;;;;;;;;;3.60;3.60;;;;;26.84;28.90;100683.25;5031394;28;45406;-51
2022/05/15 11:17:44;;;;;;;;;2.00;2.00;;;;;26.85;29.10;100668.06;5030954;28;46211;-51
2022/05/15 11:20:16;;;;;;;;;2.00;2.00;;;;;26.86;28.47;100672.53;5030787;28;45756;-53
2022/05/15 11:22:47;;;;;;;;;2.40;2.40;;;;;26.84;29.18;100669.19;5028823;28;45585;-50
2022/05/15 11:25:17;;;;;;;;;4.00;2.40;;;;;26.81;29.06;100661.41;5046899;28;45485;-52
2022/05/15 11:27:51;;;;;;;;;3.00;3.00;;;;;26.80;29.08;100652.13;5031199;28;45536;-49
2022/05/15 11:30:29;;;;;;;;;4.00;2.20;;;;;26.85;29.00;100651.16;5031037;28;45578;-54
2022/05/15 11:32:55;;;;;;;;;3.00;2.80;;;;;26.88;29.01;100658.09;5062543;28;45585;-50
2022/05/15 11:35:20;;;;;;;;;2.75;2.25;;;;;26.90;28.83;100644.56;5031271;28;45668;-51
2022/05/15 11:37:53;;;;;;;;;2.00;2.00;;;;;26.93;28.35;100655.19;5031153;28;45488;-50
2022/05/15 11:40:42;;;;;;;;;3.00;3.00;;;;;27.03;28.86;100646.44;5027880;28;45475;-49
2022/05/15 11:43:26;;;;;;;;;5.40;3.80;;;;;27.13;28.66;100638.84;5021930;28;45795;-49
2022/05/15 11:46:02;;;;;;;;;2.00;2.00;;;;;27.19;27.64;100643.16;5030029;28;45780;-50
2022/05/15 11:48:50;;;;;;;;;2.00;2.00;;;;;27.18;27.25;100639.53;5034110;28;47001;-53
2022/05/15 11:51:16;;;;;;;;;2.20;2.20;;;;;27.03;27.35;100609.00;5066526;27;45872;-48